sensor_id;sensor_type;location;lat;lon;timestamp;P1;durP1;ratioP1;P2;durP2;ratioP2
30553;SDS011;17335;50.720;7.452;2023-12-20T00:01:02;4.88;;;2.50;;
30553;SDS011;17335;50.720;7.452;2023-12-20T00:03:29;4.57;;;2.45;;
30553;SDS011;17335;50.720;7.452;2023-12-20T00:06:07;5.85;;;1.98;;
30553;SDS011;17335;50.720;7.452;2023-12-20T00:08:34;4.45;;;2.03;;
30553;SDS011;17335;50.720;7.452;2023-12-20T00:11:00;4.00;;;1.98;;
30553;SDS011;17335;50.720;7.452;2023-12-20T00:13:27;3.40;;;2.10;;
30553;SDS011;17335;50.720;7.452;2023-12-20T00:15:53;4.43;;;2.30;;
30553;SDS011;17335;50.720;7.452;2023-12-20T00:18:20;3.42;;;2.05;;
30553;SDS011;17335;50.720;7.452;2023-12-20T00:20:46;3.75;;;2.22;;
30553;SDS011;17335;50.720;7.452;2023-12-20T00:23:13;3.80;;;2.00;;
30553;SDS011;17335;50.720;7.452;2023-12-20T00:25:39;4.90;;;2.17;;
30553;SDS011;17335;50.720;7.452;2023-12-20T00:28:06;3.45;;;1.98;;
30553;SDS011;17335;50.720;7.452;2023-12-20T00:30:33;4.75;;;2.30;;
30553;SDS011;17335;50.720;7.452;2023-12-20T00:32:59;4.78;;;2.05;;
30553;SDS011;17335;50.720;7.452;2023-12-20T00:35:26;2.92;;;1.80;;
30553;SDS011;17335;50.720;7.452;2023-12-20T00:37:53;4.53;;;1.63;;
30553;SDS011;17335;50.720;7.452;2023-12-20T00:40:19;4.40;;;1.95;;
30553;SDS011;17335;50.720;7.452;2023-12-20T00:42:47;4.05;;;2.10;;
30553;SDS011;17335;50.720;7.452;2023-12-20T00:45:14;3.85;;;2.00;;
30553;SDS011;17335;50.720;7.452;2023-12-20T00:47:40;5.47;;;2.45;;
30553;SDS011;17335;50.720;7.452;2023-12-20T00:50:08;5.25;;;2.50;;
30553;SDS011;17335;50.720;7.452;2023-12-20T00:52:35;4.28;;;2.15;;
30553;SDS011;17335;50.720;7.452;2023-12-20T00:55:02;3.28;;;2.00;;
30553;SDS011;17335;50.720;7.452;2023-12-20T00:57:30;8.00;;;2.40;;
30553;SDS011;17335;50.720;7.452;2023-12-20T00:59:57;5.43;;;2.42;;
30553;SDS011;17335;50.720;7.452;2023-12-20T01:02:24;4.00;;;2.38;;
30553;SDS011;17335;50.720;7.452;2023-12-20T01:04:50;5.63;;;1.92;;
30553;SDS011;17335;50.720;7.452;2023-12-20T01:07:18;4.57;;;2.35;;
30553;SDS011;17335;50.720;7.452;2023-12-20T01:09:45;4.85;;;2.60;;
30553;SDS011;17335;50.720;7.452;2023-12-20T01:12:11;6.15;;;2.55;;
30553;SDS011;17335;50.720;7.452;2023-12-20T01:14:38;5.75;;;2.45;;
30553;SDS011;17335;50.720;7.452;2023-12-20T01:17:05;4.57;;;2.30;;
30553;SDS011;17335;50.720;7.452;2023-12-20T01:19:32;4.60;;;2.10;;
30553;SDS011;17335;50.720;7.452;2023-12-20T01:21:58;4.20;;;2.00;;
30553;SDS011;17335;50.720;7.452;2023-12-20T01:24:25;5.90;;;2.83;;
30553;SDS011;17335;50.720;7.452;2023-12-20T01:26:51;7.10;;;3.17;;
30553;SDS011;17335;50.720;7.452;2023-12-20T01:29:18;7.20;;;3.60;;
30553;SDS011;17335;50.720;7.452;2023-12-20T01:31:44;7.70;;;3.70;;
30553;SDS011;17335;50.720;7.452;2023-12-20T01:34:11;6.63;;;3.33;;
30553;SDS011;17335;50.720;7.452;2023-12-20T01:36:38;8.50;;;4.07;;
30553;SDS011;17335;50.720;7.452;2023-12-20T01:39:05;9.73;;;4.00;;
30553;SDS011;17335;50.720;7.452;2023-12-20T01:41:46;11.65;;;3.72;;
30553;SDS011;17335;50.720;7.452;2023-12-20T01:44:12;7.47;;;4.15;;
30553;SDS011;17335;50.720;7.452;2023-12-20T01:46:39;12.95;;;4.93;;
30553;SDS011;17335;50.720;7.452;2023-12-20T01:49:06;10.27;;;4.75;;
30553;SDS011;17335;50.720;7.452;2023-12-20T01:51:34;12.13;;;4.45;;
30553;SDS011;17335;50.720;7.452;2023-12-20T01:54:01;8.25;;;4.22;;
30553;SDS011;17335;50.720;7.452;2023-12-20T01:56:28;7.88;;;3.95;;
30553;SDS011;17335;50.720;7.452;2023-12-20T01:58:56;11.95;;;5.18;;
30553;SDS011;17335;50.720;7.452;2023-12-20T02:01:23;12.98;;;5.32;;
30553;SDS011;17335;50.720;7.452;2023-12-20T02:03:50;10.43;;;5.20;;
30553;SDS011;17335;50.720;7.452;2023-12-20T02:06:18;14.63;;;6.05;;
30553;SDS011;17335;50.720;7.452;2023-12-20T02:08:44;11.38;;;5.45;;
30553;SDS011;17335;50.720;7.452;2023-12-20T02:11:11;14.00;;;6.97;;
30553;SDS011;17335;50.720;7.452;2023-12-20T02:13:38;13.10;;;6.35;;
30553;SDS011;17335;50.720;7.452;2023-12-20T02:16:04;16.17;;;7.47;;
30553;SDS011;17335;50.720;7.452;2023-12-20T02:18:31;15.73;;;6.38;;
30553;SDS011;17335;50.720;7.452;2023-12-20T02:20:58;17.70;;;6.78;;
30553;SDS011;17335;50.720;7.452;2023-12-20T02:23:25;20.33;;;7.07;;
30553;SDS011;17335;50.720;7.452;2023-12-20T02:25:51;16.08;;;7.60;;
30553;SDS011;17335;50.720;7.452;2023-12-20T02:28:18;19.02;;;6.90;;
30553;SDS011;17335;50.720;7.452;2023-12-20T02:30:45;16.02;;;6.95;;
30553;SDS011;17335;50.720;7.452;2023-12-20T02:33:11;22.95;;;8.13;;
30553;SDS011;17335;50.720;7.452;2023-12-20T02:35:41;19.45;;;8.13;;
30553;SDS011;17335;50.720;7.452;2023-12-20T02:38:07;20.85;;;8.15;;
30553;SDS011;17335;50.720;7.452;2023-12-20T02:40:34;14.18;;;6.97;;
30553;SDS011;17335;50.720;7.452;2023-12-20T02:43:01;16.40;;;7.32;;
30553;SDS011;17335;50.720;7.452;2023-12-20T02:45:27;16.42;;;7.38;;
30553;SDS011;17335;50.720;7.452;2023-12-20T02:47:55;16.77;;;8.07;;
30553;SDS011;17335;50.720;7.452;2023-12-20T02:50:21;23.80;;;8.52;;
30553;SDS011;17335;50.720;7.452;2023-12-20T02:52:48;17.00;;;8.48;;
30553;SDS011;17335;50.720;7.452;2023-12-20T02:55:15;16.02;;;7.90;;
30553;SDS011;17335;50.720;7.452;2023-12-20T02:57:41;19.67;;;8.10;;
30553;SDS011;17335;50.720;7.452;2023-12-20T03:00:09;23.08;;;7.63;;
30553;SDS011;17335;50.720;7.452;2023-12-20T03:02:36;15.85;;;7.50;;
30553;SDS011;17335;50.720;7.452;2023-12-20T03:05:03;20.88;;;7.28;;
30553;SDS011;17335;50.720;7.452;2023-12-20T03:07:30;19.10;;;7.25;;
30553;SDS011;17335;50.720;7.452;2023-12-20T03:09:56;16.33;;;6.60;;
30553;SDS011;17335;50.720;7.452;2023-12-20T03:12:43;30.65;;;7.65;;
30553;SDS011;17335;50.720;7.452;2023-12-20T03:15:10;14.48;;;6.18;;
30553;SDS011;17335;50.720;7.452;2023-12-20T03:17:36;19.55;;;6.15;;
30553;SDS011;17335;50.720;7.452;2023-12-20T03:20:07;16.25;;;5.05;;
30553;SDS011;17335;50.720;7.452;2023-12-20T03:22:34;14.10;;;5.68;;
30553;SDS011;17335;50.720;7.452;2023-12-20T03:25:01;14.55;;;4.93;;
30553;SDS011;17335;50.720;7.452;2023-12-20T03:27:28;19.63;;;4.68;;
30553;SDS011;17335;50.720;7.452;2023-12-20T03:29:54;13.23;;;4.55;;
30553;SDS011;17335;50.720;7.452;2023-12-20T03:32:20;16.40;;;3.90;;
30553;SDS011;17335;50.720;7.452;2023-12-20T03:34:47;16.05;;;4.90;;
30553;SDS011;17335;50.720;7.452;2023-12-20T03:37:14;11.30;;;3.55;;
30553;SDS011;17335;50.720;7.452;2023-12-20T03:39:41;13.02;;;3.80;;
30553;SDS011;17335;50.720;7.452;2023-12-20T03:42:08;15.38;;;3.80;;
30553;SDS011;17335;50.720;7.452;2023-12-20T03:44:37;7.57;;;3.22;;
30553;SDS011;17335;50.720;7.452;2023-12-20T03:47:05;10.27;;;2.92;;
30553;SDS011;17335;50.720;7.452;2023-12-20T03:49:32;22.70;;;3.10;;
30553;SDS011;17335;50.720;7.452;2023-12-20T03:51:58;7.53;;;2.42;;
30553;SDS011;17335;50.720;7.452;2023-12-20T03:54:25;7.82;;;2.03;;
30553;SDS011;17335;50.720;7.452;2023-12-20T03:56:51;8.90;;;2.30;;
30553;SDS011;17335;50.720;7.452;2023-12-20T03:59:18;12.43;;;2.30;;
30553;SDS011;17335;50.720;7.452;2023-12-20T04:01:44;7.97;;;2.20;;
30553;SDS011;17335;50.720;7.452;2023-12-20T04:04:11;8.18;;;2.20;;
30553;SDS011;17335;50.720;7.452;2023-12-20T04:06:38;14.45;;;2.20;;
30553;SDS011;17335;50.720;7.452;2023-12-20T04:09:05;25.40;;;3.45;;
30553;SDS011;17335;50.720;7.452;2023-12-20T04:11:32;10.40;;;2.42;;
30553;SDS011;17335;50.720;7.452;2023-12-20T04:13:58;9.18;;;2.92;;
30553;SDS011;17335;50.720;7.452;2023-12-20T04:16:25;10.73;;;2.33;;
30553;SDS011;17335;50.720;7.452;2023-12-20T04:18:51;10.18;;;2.85;;
30553;SDS011;17335;50.720;7.452;2023-12-20T04:21:18;8.68;;;2.88;;
30553;SDS011;17335;50.720;7.452;2023-12-20T04:23:44;12.48;;;2.85;;
30553;SDS011;17335;50.720;7.452;2023-12-20T04:26:11;5.85;;;2.10;;
30553;SDS011;17335;50.720;7.452;2023-12-20T04:28:37;5.82;;;2.38;;
30553;SDS011;17335;50.720;7.452;2023-12-20T04:31:04;7.57;;;2.47;;
30553;SDS011;17335;50.720;7.452;2023-12-20T04:33:31;9.18;;;2.20;;
30553;SDS011;17335;50.720;7.452;2023-12-20T04:35:57;11.57;;;2.17;;
30553;SDS011;17335;50.720;7.452;2023-12-20T04:38:24;18.52;;;3.30;;
30553;SDS011;17335;50.720;7.452;2023-12-20T04:40:50;11.50;;;2.85;;
30553;SDS011;17335;50.720;7.452;2023-12-20T04:43:17;15.75;;;3.17;;
30553;SDS011;17335;50.720;7.452;2023-12-20T04:45:44;7.03;;;2.28;;
30553;SDS011;17335;50.720;7.452;2023-12-20T04:48:10;15.93;;;3.35;;
30553;SDS011;17335;50.720;7.452;2023-12-20T04:50:38;8.50;;;2.53;;
30553;SDS011;17335;50.720;7.452;2023-12-20T04:53:04;10.82;;;2.50;;
30553;SDS011;17335;50.720;7.452;2023-12-20T04:55:31;10.20;;;2.40;;
30553;SDS011;17335;50.720;7.452;2023-12-20T04:57:58;13.20;;;2.92;;
30553;SDS011;17335;50.720;7.452;2023-12-20T05:00:24;13.27;;;3.00;;
30553;SDS011;17335;50.720;7.452;2023-12-20T05:02:51;10.43;;;2.60;;
30553;SDS011;17335;50.720;7.452;2023-12-20T05:05:18;23.83;;;2.90;;
30553;SDS011;17335;50.720;7.452;2023-12-20T05:07:45;17.30;;;3.47;;
30553;SDS011;17335;50.720;7.452;2023-12-20T05:10:12;11.38;;;3.08;;
30553;SDS011;17335;50.720;7.452;2023-12-20T05:12:40;16.35;;;3.20;;
30553;SDS011;17335;50.720;7.452;2023-12-20T05:15:07;8.18;;;3.20;;
30553;SDS011;17335;50.720;7.452;2023-12-20T05:17:34;14.57;;;2.80;;
30553;SDS011;17335;50.720;7.452;2023-12-20T05:20:01;14.52;;;3.10;;
30553;SDS011;17335;50.720;7.452;2023-12-20T05:22:27;10.35;;;2.80;;
30553;SDS011;17335;50.720;7.452;2023-12-20T05:24:54;15.85;;;3.60;;
30553;SDS011;17335;50.720;7.452;2023-12-20T05:27:20;10.68;;;3.20;;
30553;SDS011;17335;50.720;7.452;2023-12-20T05:29:47;16.00;;;3.42;;
30553;SDS011;17335;50.720;7.452;2023-12-20T05:32:13;10.43;;;3.45;;
30553;SDS011;17335;50.720;7.452;2023-12-20T05:34:40;9.68;;;3.13;;
30553;SDS011;17335;50.720;7.452;2023-12-20T05:37:07;11.75;;;3.35;;
30553;SDS011;17335;50.720;7.452;2023-12-20T05:39:33;13.27;;;3.25;;
30553;SDS011;17335;50.720;7.452;2023-12-20T05:41:59;10.23;;;3.63;;
30553;SDS011;17335;50.720;7.452;2023-12-20T05:44:26;10.60;;;3.55;;
30553;SDS011;17335;50.720;7.452;2023-12-20T05:46:52;14.95;;;3.15;;
30553;SDS011;17335;50.720;7.452;2023-12-20T05:49:19;11.70;;;4.03;;
30553;SDS011;17335;50.720;7.452;2023-12-20T05:51:45;14.27;;;2.90;;
30553;SDS011;17335;50.720;7.452;2023-12-20T05:54:12;10.88;;;3.15;;
30553;SDS011;17335;50.720;7.452;2023-12-20T05:56:38;17.23;;;3.63;;
30553;SDS011;17335;50.720;7.452;2023-12-20T05:59:05;12.30;;;2.85;;
30553;SDS011;17335;50.720;7.452;2023-12-20T06:01:31;6.28;;;2.75;;
30553;SDS011;17335;50.720;7.452;2023-12-20T06:03:58;16.40;;;3.40;;
30553;SDS011;17335;50.720;7.452;2023-12-20T06:06:24;9.52;;;3.38;;
30553;SDS011;17335;50.720;7.452;2023-12-20T06:08:51;7.15;;;3.10;;
30553;SDS011;17335;50.720;7.452;2023-12-20T06:11:17;11.63;;;3.22;;
30553;SDS011;17335;50.720;7.452;2023-12-20T06:13:44;8.38;;;3.28;;
30553;SDS011;17335;50.720;7.452;2023-12-20T06:16:10;10.85;;;2.78;;
30553;SDS011;17335;50.720;7.452;2023-12-20T06:18:37;8.35;;;3.25;;
30553;SDS011;17335;50.720;7.452;2023-12-20T06:21:04;8.40;;;2.78;;
30553;SDS011;17335;50.720;7.452;2023-12-20T06:23:30;15.02;;;3.53;;
30553;SDS011;17335;50.720;7.452;2023-12-20T06:25:57;12.90;;;4.00;;
30553;SDS011;17335;50.720;7.452;2023-12-20T06:28:24;13.95;;;3.30;;
30553;SDS011;17335;50.720;7.452;2023-12-20T06:30:50;15.15;;;3.55;;
30553;SDS011;17335;50.720;7.452;2023-12-20T06:33:18;16.58;;;3.20;;
30553;SDS011;17335;50.720;7.452;2023-12-20T06:35:47;8.02;;;3.45;;
30553;SDS011;17335;50.720;7.452;2023-12-20T06:38:14;10.57;;;3.47;;
30553;SDS011;17335;50.720;7.452;2023-12-20T06:40:41;18.10;;;4.38;;
30553;SDS011;17335;50.720;7.452;2023-12-20T06:43:09;9.45;;;2.55;;
30553;SDS011;17335;50.720;7.452;2023-12-20T06:45:49;14.10;;;3.22;;
30553;SDS011;17335;50.720;7.452;2023-12-20T06:48:17;13.63;;;3.15;;
30553;SDS011;17335;50.720;7.452;2023-12-20T06:50:45;14.15;;;3.65;;
30553;SDS011;17335;50.720;7.452;2023-12-20T06:53:12;16.92;;;3.92;;
30553;SDS011;17335;50.720;7.452;2023-12-20T06:55:38;11.82;;;3.50;;
30553;SDS011;17335;50.720;7.452;2023-12-20T06:58:05;12.57;;;3.10;;
30553;SDS011;17335;50.720;7.452;2023-12-20T07:00:32;11.77;;;3.45;;
30553;SDS011;17335;50.720;7.452;2023-12-20T07:02:59;13.68;;;2.75;;
30553;SDS011;17335;50.720;7.452;2023-12-20T07:05:27;12.98;;;3.65;;
30553;SDS011;17335;50.720;7.452;2023-12-20T07:07:53;10.63;;;3.00;;
30553;SDS011;17335;50.720;7.452;2023-12-20T07:10:20;15.30;;;3.42;;
30553;SDS011;17335;50.720;7.452;2023-12-20T07:12:47;13.80;;;3.50;;
30553;SDS011;17335;50.720;7.452;2023-12-20T07:15:15;14.23;;;3.75;;
30553;SDS011;17335;50.720;7.452;2023-12-20T07:17:41;15.98;;;3.20;;
30553;SDS011;17335;50.720;7.452;2023-12-20T07:20:09;18.95;;;4.15;;
30553;SDS011;17335;50.720;7.452;2023-12-20T07:22:37;11.98;;;3.60;;
30553;SDS011;17335;50.720;7.452;2023-12-20T07:25:04;7.40;;;3.05;;
30553;SDS011;17335;50.720;7.452;2023-12-20T07:27:30;24.35;;;3.53;;
30553;SDS011;17335;50.720;7.452;2023-12-20T07:29:58;11.88;;;4.30;;
30553;SDS011;17335;50.720;7.452;2023-12-20T07:32:25;22.02;;;3.13;;
30553;SDS011;17335;50.720;7.452;2023-12-20T07:34:51;15.32;;;3.22;;
30553;SDS011;17335;50.720;7.452;2023-12-20T07:37:20;15.07;;;3.58;;
30553;SDS011;17335;50.720;7.452;2023-12-20T07:39:47;12.68;;;3.55;;
30553;SDS011;17335;50.720;7.452;2023-12-20T07:42:14;9.20;;;2.75;;
30553;SDS011;17335;50.720;7.452;2023-12-20T07:44:40;12.75;;;3.20;;
30553;SDS011;17335;50.720;7.452;2023-12-20T07:47:07;11.75;;;2.95;;
30553;SDS011;17335;50.720;7.452;2023-12-20T07:49:34;10.40;;;3.22;;
30553;SDS011;17335;50.720;7.452;2023-12-20T07:52:01;20.00;;;3.30;;
30553;SDS011;17335;50.720;7.452;2023-12-20T07:54:27;16.55;;;3.78;;
30553;SDS011;17335;50.720;7.452;2023-12-20T07:56:54;13.38;;;3.08;;
30553;SDS011;17335;50.720;7.452;2023-12-20T07:59:21;13.23;;;3.15;;
30553;SDS011;17335;50.720;7.452;2023-12-20T08:01:58;14.32;;;3.28;;
30553;SDS011;17335;50.720;7.452;2023-12-20T08:04:25;14.57;;;2.85;;
30553;SDS011;17335;50.720;7.452;2023-12-20T08:06:51;13.50;;;3.40;;
30553;SDS011;17335;50.720;7.452;2023-12-20T08:09:18;11.68;;;2.70;;
30553;SDS011;17335;50.720;7.452;2023-12-20T08:11:46;19.33;;;2.80;;
30553;SDS011;17335;50.720;7.452;2023-12-20T08:14:13;11.40;;;2.80;;
30553;SDS011;17335;50.720;7.452;2023-12-20T08:16:41;13.20;;;3.38;;
30553;SDS011;17335;50.720;7.452;2023-12-20T08:19:07;13.95;;;3.45;;
30553;SDS011;17335;50.720;7.452;2023-12-20T08:21:34;8.70;;;3.20;;
30553;SDS011;17335;50.720;7.452;2023-12-20T08:24:04;14.13;;;2.88;;
30553;SDS011;17335;50.720;7.452;2023-12-20T08:26:33;11.80;;;2.92;;
30553;SDS011;17335;50.720;7.452;2023-12-20T08:29:00;13.23;;;3.08;;
30553;SDS011;17335;50.720;7.452;2023-12-20T08:31:28;13.77;;;2.85;;
30553;SDS011;17335;50.720;7.452;2023-12-20T08:33:55;8.88;;;2.63;;
30553;SDS011;17335;50.720;7.452;2023-12-20T08:36:22;13.77;;;3.17;;
30553;SDS011;17335;50.720;7.452;2023-12-20T08:38:49;12.40;;;3.03;;
30553;SDS011;17335;50.720;7.452;2023-12-20T08:41:17;8.43;;;3.05;;
30553;SDS011;17335;50.720;7.452;2023-12-20T08:43:43;13.98;;;2.55;;
30553;SDS011;17335;50.720;7.452;2023-12-20T08:46:10;8.38;;;2.90;;
30553;SDS011;17335;50.720;7.452;2023-12-20T08:48:37;7.85;;;2.63;;
30553;SDS011;17335;50.720;7.452;2023-12-20T08:51:04;11.80;;;2.72;;
30553;SDS011;17335;50.720;7.452;2023-12-20T08:53:34;11.18;;;2.92;;
30553;SDS011;17335;50.720;7.452;2023-12-20T08:56:01;9.35;;;2.65;;
30553;SDS011;17335;50.720;7.452;2023-12-20T08:58:28;9.45;;;2.47;;
30553;SDS011;17335;50.720;7.452;2023-12-20T09:00:55;10.27;;;2.60;;
30553;SDS011;17335;50.720;7.452;2023-12-20T09:03:21;7.63;;;2.45;;
30553;SDS011;17335;50.720;7.452;2023-12-20T09:05:48;6.93;;;2.30;;
30553;SDS011;17335;50.720;7.452;2023-12-20T09:08:14;11.95;;;3.15;;
30553;SDS011;17335;50.720;7.452;2023-12-20T09:10:41;14.90;;;2.90;;
30553;SDS011;17335;50.720;7.452;2023-12-20T09:13:07;15.23;;;3.00;;
30553;SDS011;17335;50.720;7.452;2023-12-20T09:15:34;14.30;;;2.70;;
30553;SDS011;17335;50.720;7.452;2023-12-20T09:18:02;8.43;;;2.53;;
30553;SDS011;17335;50.720;7.452;2023-12-20T09:20:30;22.67;;;3.15;;
30553;SDS011;17335;50.720;7.452;2023-12-20T09:22:57;12.82;;;2.83;;
30553;SDS011;17335;50.720;7.452;2023-12-20T09:25:24;8.55;;;2.58;;
30553;SDS011;17335;50.720;7.452;2023-12-20T09:27:52;12.90;;;3.30;;
30553;SDS011;17335;50.720;7.452;2023-12-20T09:30:19;8.93;;;2.25;;
30553;SDS011;17335;50.720;7.452;2023-12-20T09:32:53;11.68;;;2.78;;
30553;SDS011;17335;50.720;7.452;2023-12-20T09:35:21;8.98;;;2.58;;
30553;SDS011;17335;50.720;7.452;2023-12-20T09:37:48;9.60;;;3.00;;
30553;SDS011;17335;50.720;7.452;2023-12-20T09:40:17;12.95;;;2.28;;
30553;SDS011;17335;50.720;7.452;2023-12-20T09:42:58;7.85;;;2.15;;
30553;SDS011;17335;50.720;7.452;2023-12-20T09:45:30;17.40;;;2.95;;
30553;SDS011;17335;50.720;7.452;2023-12-20T09:47:58;15.50;;;2.45;;
30553;SDS011;17335;50.720;7.452;2023-12-20T09:50:24;16.45;;;2.50;;
30553;SDS011;17335;50.720;7.452;2023-12-20T09:52:53;10.00;;;2.30;;
30553;SDS011;17335;50.720;7.452;2023-12-20T09:55:20;8.68;;;2.60;;
30553;SDS011;17335;50.720;7.452;2023-12-20T09:57:48;9.32;;;2.72;;
30553;SDS011;17335;50.720;7.452;2023-12-20T10:00:16;10.50;;;2.38;;
30553;SDS011;17335;50.720;7.452;2023-12-20T10:02:50;11.63;;;2.65;;
30553;SDS011;17335;50.720;7.452;2023-12-20T10:05:28;4.95;;;2.20;;
30553;SDS011;17335;50.720;7.452;2023-12-20T10:07:56;8.57;;;2.63;;
30553;SDS011;17335;50.720;7.452;2023-12-20T10:10:23;11.05;;;2.53;;
30553;SDS011;17335;50.720;7.452;2023-12-20T10:13:04;9.07;;;2.10;;
30553;SDS011;17335;50.720;7.452;2023-12-20T10:15:33;9.23;;;2.58;;
30553;SDS011;17335;50.720;7.452;2023-12-20T10:18:03;13.20;;;2.60;;
30553;SDS011;17335;50.720;7.452;2023-12-20T10:20:30;14.57;;;2.50;;
30553;SDS011;17335;50.720;7.452;2023-12-20T10:22:58;9.57;;;2.45;;
30553;SDS011;17335;50.720;7.452;2023-12-20T10:25:26;10.00;;;1.90;;
30553;SDS011;17335;50.720;7.452;2023-12-20T10:30:41;12.48;;;3.15;;
30553;SDS011;17335;50.720;7.452;2023-12-20T10:33:09;12.38;;;2.75;;
30553;SDS011;17335;50.720;7.452;2023-12-20T10:35:37;13.32;;;3.17;;
30553;SDS011;17335;50.720;7.452;2023-12-20T10:38:08;14.73;;;2.40;;
30553;SDS011;17335;50.720;7.452;2023-12-20T10:40:35;10.98;;;2.88;;
30553;SDS011;17335;50.720;7.452;2023-12-20T10:43:05;16.27;;;2.92;;
30553;SDS011;17335;50.720;7.452;2023-12-20T10:45:33;5.13;;;2.00;;
30553;SDS011;17335;50.720;7.452;2023-12-20T10:48:00;10.82;;;2.65;;
30553;SDS011;17335;50.720;7.452;2023-12-20T10:50:29;7.70;;;2.28;;
30553;SDS011;17335;50.720;7.452;2023-12-20T10:52:56;12.68;;;2.40;;
30553;SDS011;17335;50.720;7.452;2023-12-20T10:55:27;10.68;;;2.10;;
30553;SDS011;17335;50.720;7.452;2023-12-20T10:57:57;13.65;;;2.45;;
30553;SDS011;17335;50.720;7.452;2023-12-20T11:00:28;12.30;;;2.75;;
30553;SDS011;17335;50.720;7.452;2023-12-20T11:02:58;10.32;;;2.33;;
30553;SDS011;17335;50.720;7.452;2023-12-20T11:08:25;10.55;;;2.53;;
30553;SDS011;17335;50.720;7.452;2023-12-20T11:14:00;11.15;;;2.83;;
30553;SDS011;17335;50.720;7.452;2023-12-20T11:16:32;8.20;;;2.20;;
30553;SDS011;17335;50.720;7.452;2023-12-20T11:19:13;12.30;;;2.55;;
30553;SDS011;17335;50.720;7.452;2023-12-20T11:21:40;4.53;;;1.90;;
30553;SDS011;17335;50.720;7.452;2023-12-20T11:24:07;10.88;;;2.80;;
30553;SDS011;17335;50.720;7.452;2023-12-20T11:26:34;6.25;;;2.22;;
30553;SDS011;17335;50.720;7.452;2023-12-20T11:31:56;17.67;;;2.92;;
30553;SDS011;17335;50.720;7.452;2023-12-20T11:34:22;10.75;;;2.72;;
30553;SDS011;17335;50.720;7.452;2023-12-20T11:36:57;9.88;;;2.42;;
30553;SDS011;17335;50.720;7.452;2023-12-20T11:39:26;9.57;;;2.80;;
30553;SDS011;17335;50.720;7.452;2023-12-20T11:41:54;10.45;;;2.58;;
30553;SDS011;17335;50.720;7.452;2023-12-20T11:44:23;13.43;;;3.20;;
30553;SDS011;17335;50.720;7.452;2023-12-20T11:46:51;10.40;;;2.55;;
30553;SDS011;17335;50.720;7.452;2023-12-20T11:49:18;12.63;;;2.92;;
30553;SDS011;17335;50.720;7.452;2023-12-20T11:51:44;12.10;;;3.05;;
30553;SDS011;17335;50.720;7.452;2023-12-20T11:54:11;15.30;;;4.07;;
30553;SDS011;17335;50.720;7.452;2023-12-20T11:56:37;9.18;;;2.83;;
30553;SDS011;17335;50.720;7.452;2023-12-20T11:59:04;10.13;;;2.63;;
30553;SDS011;17335;50.720;7.452;2023-12-20T12:01:49;18.58;;;3.25;;
30553;SDS011;17335;50.720;7.452;2023-12-20T12:04:19;4.85;;;1.92;;
30553;SDS011;17335;50.720;7.452;2023-12-20T12:06:46;13.95;;;3.08;;
30553;SDS011;17335;50.720;7.452;2023-12-20T12:09:15;7.80;;;2.28;;
30553;SDS011;17335;50.720;7.452;2023-12-20T12:11:41;7.88;;;2.50;;
30553;SDS011;17335;50.720;7.452;2023-12-20T12:14:09;9.70;;;2.72;;
30553;SDS011;17335;50.720;7.452;2023-12-20T12:16:36;10.13;;;2.42;;
30553;SDS011;17335;50.720;7.452;2023-12-20T12:19:02;11.30;;;2.70;;
30553;SDS011;17335;50.720;7.452;2023-12-20T12:21:30;8.13;;;2.42;;
30553;SDS011;17335;50.720;7.452;2023-12-20T12:24:08;14.45;;;2.90;;
30553;SDS011;17335;50.720;7.452;2023-12-20T12:26:36;13.60;;;2.58;;
30553;SDS011;17335;50.720;7.452;2023-12-20T12:29:07;8.32;;;2.65;;
30553;SDS011;17335;50.720;7.452;2023-12-20T12:31:34;7.35;;;2.63;;
30553;SDS011;17335;50.720;7.452;2023-12-20T12:34:01;9.25;;;2.38;;
30553;SDS011;17335;50.720;7.452;2023-12-20T12:36:28;14.95;;;2.88;;
30553;SDS011;17335;50.720;7.452;2023-12-20T12:38:56;8.15;;;3.50;;
30553;SDS011;17335;50.720;7.452;2023-12-20T12:41:24;16.95;;;3.25;;
30553;SDS011;17335;50.720;7.452;2023-12-20T12:43:50;9.77;;;2.75;;
30553;SDS011;17335;50.720;7.452;2023-12-20T12:46:17;13.43;;;2.58;;
30553;SDS011;17335;50.720;7.452;2023-12-20T12:48:43;14.10;;;2.88;;
30553;SDS011;17335;50.720;7.452;2023-12-20T12:51:12;6.28;;;1.92;;
30553;SDS011;17335;50.720;7.452;2023-12-20T12:53:42;8.43;;;2.35;;
30553;SDS011;17335;50.720;7.452;2023-12-20T12:56:08;12.93;;;2.78;;
30553;SDS011;17335;50.720;7.452;2023-12-20T12:58:35;14.13;;;3.00;;
30553;SDS011;17335;50.720;7.452;2023-12-20T13:01:02;6.72;;;2.25;;
30553;SDS011;17335;50.720;7.452;2023-12-20T13:03:30;12.30;;;2.90;;
30553;SDS011;17335;50.720;7.452;2023-12-20T13:05:57;7.57;;;2.33;;
30553;SDS011;17335;50.720;7.452;2023-12-20T13:08:24;7.57;;;2.60;;
30553;SDS011;17335;50.720;7.452;2023-12-20T13:10:50;11.27;;;2.88;;
30553;SDS011;17335;50.720;7.452;2023-12-20T13:13:17;14.80;;;3.40;;
30553;SDS011;17335;50.720;7.452;2023-12-20T13:15:44;12.85;;;2.50;;
30553;SDS011;17335;50.720;7.452;2023-12-20T13:18:17;13.05;;;2.85;;
30553;SDS011;17335;50.720;7.452;2023-12-20T13:20:45;15.43;;;2.08;;
30553;SDS011;17335;50.720;7.452;2023-12-20T13:23:12;6.53;;;2.75;;
30553;SDS011;17335;50.720;7.452;2023-12-20T13:25:39;7.75;;;2.45;;
30553;SDS011;17335;50.720;7.452;2023-12-20T13:28:06;13.20;;;2.53;;
30553;SDS011;17335;50.720;7.452;2023-12-20T13:30:34;9.38;;;2.53;;
30553;SDS011;17335;50.720;7.452;2023-12-20T13:33:02;6.70;;;2.28;;
30553;SDS011;17335;50.720;7.452;2023-12-20T13:35:29;8.23;;;2.53;;
30553;SDS011;17335;50.720;7.452;2023-12-20T13:37:56;5.82;;;2.05;;
30553;SDS011;17335;50.720;7.452;2023-12-20T13:40:24;7.10;;;2.80;;
30553;SDS011;17335;50.720;7.452;2023-12-20T13:42:51;7.95;;;2.80;;
30553;SDS011;17335;50.720;7.452;2023-12-20T13:45:17;10.77;;;2.90;;
30553;SDS011;17335;50.720;7.452;2023-12-20T13:47:44;11.48;;;2.92;;
30553;SDS011;17335;50.720;7.452;2023-12-20T13:50:11;5.22;;;2.47;;
30553;SDS011;17335;50.720;7.452;2023-12-20T13:52:39;13.85;;;3.10;;
30553;SDS011;17335;50.720;7.452;2023-12-20T13:57:37;9.35;;;2.85;;
30553;SDS011;17335;50.720;7.452;2023-12-20T14:00:20;9.27;;;2.88;;
30553;SDS011;17335;50.720;7.452;2023-12-20T14:02:47;6.78;;;2.53;;
30553;SDS011;17335;50.720;7.452;2023-12-20T14:05:15;14.13;;;2.83;;
30553;SDS011;17335;50.720;7.452;2023-12-20T14:07:45;10.52;;;2.65;;
30553;SDS011;17335;50.720;7.452;2023-12-20T14:10:13;8.45;;;3.10;;
30553;SDS011;17335;50.720;7.452;2023-12-20T14:12:40;14.05;;;3.20;;
30553;SDS011;17335;50.720;7.452;2023-12-20T14:15:07;7.30;;;3.20;;
30553;SDS011;17335;50.720;7.452;2023-12-20T14:17:39;6.50;;;2.92;;
30553;SDS011;17335;50.720;7.452;2023-12-20T14:20:08;4.88;;;2.58;;
30553;SDS011;17335;50.720;7.452;2023-12-20T14:22:35;9.80;;;2.78;;
30553;SDS011;17335;50.720;7.452;2023-12-20T14:25:02;7.45;;;2.95;;
30553;SDS011;17335;50.720;7.452;2023-12-20T14:27:29;7.20;;;3.15;;
30553;SDS011;17335;50.720;7.452;2023-12-20T14:29:55;8.48;;;3.13;;
30553;SDS011;17335;50.720;7.452;2023-12-20T14:32:22;7.13;;;2.70;;
30553;SDS011;17335;50.720;7.452;2023-12-20T14:34:50;11.32;;;2.75;;
30553;SDS011;17335;50.720;7.452;2023-12-20T14:37:16;7.68;;;2.83;;
30553;SDS011;17335;50.720;7.452;2023-12-20T14:39:44;6.63;;;2.53;;
30553;SDS011;17335;50.720;7.452;2023-12-20T14:42:10;8.45;;;2.83;;
30553;SDS011;17335;50.720;7.452;2023-12-20T14:44:40;6.85;;;2.38;;
30553;SDS011;17335;50.720;7.452;2023-12-20T14:47:07;4.70;;;2.40;;
30553;SDS011;17335;50.720;7.452;2023-12-20T14:49:33;6.72;;;2.30;;
30553;SDS011;17335;50.720;7.452;2023-12-20T14:52:00;13.23;;;2.67;;
30553;SDS011;17335;50.720;7.452;2023-12-20T14:54:27;6.97;;;2.92;;
30553;SDS011;17335;50.720;7.452;2023-12-20T14:56:53;8.50;;;2.33;;